Time;durP1;ratioP1;P1;durP2;ratioP2;P2;SDS_P1;SDS_P2;PMS_P1;PMS_P2;Temp;Humidity;BMP_temperature;BMP_pressure;BME280_temperature;BME280_humidity;BME280_pressure;Samples;Min_cycle;Max_cycle;Signal;HPM_P1;HPM_P2
2023/05/12 00:02:03;;;;;;;3.80;2.57;;;11.60;98.00;;;;;;5050623;28;20543;-62
2023/05/12 00:04:30;;;;;;;6.07;2.57;;;11.60;98.00;;;;;;5050532;28;20464;-63
2023/05/12 00:07:00;;;;;;;4.03;2.50;;;11.60;98.00;;;;;;5033651;28;20464;-61
2023/05/12 00:09:28;;;;;;;4.13;2.63;;;11.70;98.00;;;;;;5036576;28;20525;-63
2023/05/12 00:11:56;;;;;;;4.93;2.23;;;11.80;98.00;;;;;;5054233;28;20460;-61
2023/05/12 00:14:23;;;;;;;6.90;2.60;;;11.90;98.00;;;;;;5054290;28;20833;-62
2023/05/12 00:16:51;;;;;;;3.30;2.20;;;11.90;98.00;;;;;;5036528;28;20449;-62
2023/05/12 00:19:18;;;;;;;2.03;1.93;;;11.90;98.00;;;;;;5054277;28;20945;-62
2023/05/12 00:21:46;;;;;;;5.00;2.80;;;11.90;98.00;;;;;;5053888;28;20482;-62
2023/05/12 00:24:13;;;;;;;3.73;2.33;;;11.90;98.00;;;;;;5036460;28;20457;-62
2023/05/12 00:26:42;;;;;;;2.53;2.33;;;11.90;98.00;;;;;;5054018;28;20519;-61
2023/05/12 00:29:09;;;;;;;4.10;2.50;;;11.90;98.00;;;;;;5053816;28;20460;-63
2023/05/12 00:31:36;;;;;;;4.70;2.60;;;11.90;98.00;;;;;;5053937;28;20468;-62
2023/05/12 00:34:03;;;;;;;5.47;3.10;;;11.80;98.00;;;;;;5054048;28;21014;-63
2023/05/12 00:36:30;;;;;;;6.70;3.30;;;11.80;98.00;;;;;;5053595;28;20870;-62
2023/05/12 00:38:58;;;;;;;5.30;3.00;;;11.80;98.00;;;;;;5053812;28;20463;-62
2023/05/12 00:41:25;;;;;;;6.37;3.50;;;12.00;98.00;;;;;;5053839;28;21028;-62
2023/05/12 00:43:54;;;;;;;6.23;3.23;;;12.00;98.00;;;;;;5053862;28;20456;-62
2023/05/12 00:46:21;;;;;;;4.97;2.80;;;11.90;98.00;;;;;;5054139;28;20487;-61
2023/05/12 00:48:49;;;;;;;5.57;2.87;;;11.80;98.00;;;;;;5053675;28;20460;-61
2023/05/12 00:51:16;;;;;;;6.77;3.23;;;11.80;98.00;;;;;;5053808;28;20820;-61
2023/05/12 00:53:44;;;;;;;6.47;3.27;;;11.80;98.00;;;;;;5053408;28;20483;-63
2023/05/12 00:56:12;;;;;;;5.30;2.80;;;11.70;98.00;;;;;;5053376;28;20452;-62
2023/05/12 00:58:39;;;;;;;4.00;2.70;;;11.60;98.00;;;;;;5053217;28;20496;-62
2023/05/12 01:01:08;;;;;;;4.90;2.77;;;11.70;98.00;;;;;;5053190;28;21024;-61
2023/05/12 01:03:36;;;;;;;5.07;2.80;;;11.80;98.00;;;;;;5053441;28;20482;-62
2023/05/12 01:06:10;;;;;;;4.90;2.80;;;11.80;98.00;;;;;;5053132;28;21001;-62
2023/05/12 01:08:38;;;;;;;4.63;2.70;;;11.70;98.00;;;;;;5053361;28;21005;-62
2023/05/12 01:11:05;;;;;;;3.33;2.50;;;11.60;98.00;;;;;;5053313;28;20469;-62
2023/05/12 01:13:32;;;;;;;6.70;2.77;;;11.70;98.00;;;;;;5035570;28;20489;-62
2023/05/12 01:16:02;;;;;;;7.80;3.30;;;11.70;98.00;;;;;;5052941;28;20467;-61
2023/05/12 01:18:34;;;;;;;4.50;2.67;;;11.60;98.00;;;;;;5052550;28;20456;-62
2023/05/12 01:21:02;;;;;;;3.50;2.37;;;11.60;98.00;;;;;;5052932;28;20490;-62
2023/05/12 01:23:34;;;;;;;4.43;2.60;;;11.60;98.00;;;;;;5053179;28;20462;-61
2023/05/12 01:26:06;;;;;;;3.03;2.27;;;11.70;98.00;;;;;;5052936;28;20460;-62
2023/05/12 01:28:34;;;;;;;3.80;2.60;;;11.60;98.00;;;;;;5053091;28;20807;-62
2023/05/12 01:31:04;;;;;;;2.47;1.90;;;11.60;98.00;;;;;;5052744;28;20454;-63
2023/05/12 01:33:32;;;;;;;4.40;2.67;;;11.70;98.00;;;;;;5034868;28;20946;-62
2023/05/12 01:36:00;;;;;;;3.97;2.17;;;11.80;98.00;;;;;;5052950;28;20459;-62
2023/05/12 01:38:27;;;;;;;5.07;2.80;;;11.80;98.00;;;;;;5053307;28;20464;-61
2023/05/12 01:40:54;;;;;;;4.10;2.60;;;11.70;98.00;;;;;;5052996;28;20464;-62
2023/05/12 01:43:22;;;;;;;3.87;2.37;;;11.60;98.00;;;;;;5052749;28;20825;-62
2023/05/12 01:45:49;;;;;;;4.13;2.60;;;11.60;98.00;;;;;;5052543;28;20463;-62
2023/05/12 01:48:16;;;;;;;4.83;2.70;;;11.50;98.00;;;;;;5035738;28;20464;-62
2023/05/12 01:50:43;;;;;;;3.43;2.20;;;11.50;98.00;;;;;;5053708;28;20458;-62
2023/05/12 01:53:11;;;;;;;5.50;2.97;;;11.50;98.00;;;;;;5052392;28;20466;-62
2023/05/12 01:55:39;;;;;;;3.97;2.37;;;11.70;98.00;;;;;;5053648;28;20458;-62
2023/05/12 01:58:06;;;;;;;4.20;2.90;;;11.80;98.00;;;;;;5053364;28;20466;-62
2023/05/12 02:00:35;;;;;;;4.67;2.40;;;11.80;98.00;;;;;;5052413;28;20868;-61
2023/05/12 02:03:03;;;;;;;3.80;2.33;;;11.80;98.00;;;;;;5052117;28;21081;-61
2023/05/12 02:05:30;;;;;;;3.60;2.70;;;11.80;98.00;;;;;;5034719;28;20464;-62
2023/05/12 02:07:57;;;;;;;3.33;2.53;;;11.70;98.00;;;;;;5018206;28;20457;-62
2023/05/12 02:10:24;;;;;;;3.73;2.27;;;11.70;98.00;;;;;;5052269;28;20474;-62
2023/05/12 02:12:51;;;;;;;3.40;2.17;;;11.60;98.00;;;;;;5051678;28;20452;-62
2023/05/12 02:15:19;;;;;;;3.70;2.57;;;11.60;98.00;;;;;;5052226;28;20473;-63
2023/05/12 02:17:49;;;;;;;5.97;2.90;;;11.60;98.00;;;;;;5052053;28;20465;-62
2023/05/12 02:20:16;;;;;;;5.70;3.30;;;11.60;98.00;;;;;;5052089;28;20516;-61
2023/05/12 02:22:43;;;;;;;5.53;2.87;;;11.60;98.00;;;;;;5051811;28;20484;-63
2023/05/12 02:25:10;;;;;;;5.33;3.23;;;11.70;98.00;;;;;;5051791;28;20524;-62
2023/05/12 02:27:38;;;;;;;5.17;3.10;;;11.80;98.00;;;;;;5051881;28;20457;-62
2023/05/12 02:30:06;;;;;;;5.00;2.63;;;11.70;98.00;;;;;;5051033;28;20467;-61
2023/05/12 02:32:36;;;;;;;8.37;3.00;;;11.80;98.00;;;;;;5051831;28;20485;-63
2023/05/12 02:35:06;;;;;;;4.20;2.57;;;11.80;98.00;;;;;;5034691;28;20510;-63
2023/05/12 02:37:33;;;;;;;4.60;2.93;;;11.70;98.00;;;;;;5051852;28;20452;-61
2023/05/12 02:40:00;;;;;;;6.00;3.17;;;11.70;98.00;;;;;;5051693;28;20488;-62
2023/05/12 02:42:34;;;;;;;6.47;3.23;;;11.70;98.00;;;;;;5033896;28;20945;-63
2023/05/12 02:45:01;;;;;;;9.40;3.57;;;11.60;98.00;;;;;;5034797;28;20490;-62
2023/05/12 02:47:31;;;;;;;5.20;3.10;;;11.60;98.00;;;;;;5050855;28;20465;-61
2023/05/12 02:49:59;;;;;;;5.07;2.93;;;11.60;98.00;;;;;;5034165;28;20502;-62
2023/05/12 02:52:27;;;;;;;5.80;3.10;;;11.70;98.00;;;;;;5051312;28;20464;-62
2023/05/12 02:54:56;;;;;;;8.00;3.93;;;11.70;98.00;;;;;;5051007;28;20967;-61
2023/05/12 02:57:25;;;;;;;7.37;4.00;;;11.70;98.00;;;;;;5033790;28;20476;-62
2023/05/12 02:59:52;;;;;;;6.40;3.23;;;11.70;98.00;;;;;;5051169;28;20547;-62
2023/05/12 03:02:19;;;;;;;7.33;3.33;;;11.70;98.00;;;;;;5051129;28;20484;-62
2023/05/12 03:04:46;;;;;;;7.13;3.80;;;11.80;98.00;;;;;;5051134;28;20881;-62
2023/05/12 03:07:13;;;;;;;8.03;3.53;;;11.80;98.00;;;;;;5051279;28;20466;-62
2023/05/12 03:09:41;;;;;;;8.20;4.43;;;11.80;98.00;;;;;;5051183;28;20527;-61
2023/05/12 03:12:09;;;;;;;6.33;3.60;;;11.90;98.00;;;;;;5051068;28;20467;-63
2023/05/12 03:14:37;;;;;;;8.10;3.70;;;11.90;98.00;;;;;;5033551;28;20460;-62
2023/05/12 03:17:04;;;;;;;6.10;3.33;;;12.00;98.00;;;;;;5050971;28;20476;-62
2023/05/12 03:19:31;;;;;;;8.40;3.50;;;12.00;98.00;;;;;;5050983;28;20457;-63
2023/05/12 03:21:58;;;;;;;6.63;3.03;;;12.00;98.00;;;;;;5050870;28;20483;-62
2023/05/12 03:24:25;;;;;;;7.90;3.87;;;12.10;98.00;;;;;;5033418;28;20800;-62
2023/05/12 03:26:54;;;;;;;7.37;3.83;;;12.10;98.00;;;;;;5050929;28;20980;-62
2023/05/12 03:29:21;;;;;;;7.80;3.93;;;12.10;98.00;;;;;;5050864;28;20830;-61
2023/05/12 03:31:48;;;;;;;6.30;3.67;;;12.10;98.00;;;;;;5051346;28;20965;-62
2023/05/12 03:34:18;;;;;;;9.70;4.50;;;12.10;98.00;;;;;;5050760;28;20459;-63
2023/05/12 03:36:46;;;;;;;9.50;4.40;;;12.10;98.00;;;;;;5050907;28;20459;-63
2023/05/12 03:39:13;;;;;;;8.87;4.00;;;12.10;98.00;;;;;;5050982;28;20460;-61
2023/05/12 03:41:40;;;;;;;9.80;3.87;;;12.10;98.00;;;;;;5052686;28;20455;-63
2023/05/12 03:44:09;;;;;;;12.00;4.67;;;12.20;98.00;;;;;;5037185;28;20457;-62
2023/05/12 03:46:36;;;;;;;6.47;3.43;;;12.20;98.00;;;;;;5054646;28;20510;-61
2023/05/12 03:49:03;;;;;;;7.53;3.60;;;12.10;98.00;;;;;;5054898;28;20491;-61
2023/05/12 03:51:31;;;;;;;11.13;4.00;;;12.10;98.00;;;;;;5054728;28;20456;-62
2023/05/12 03:53:58;;;;;;;5.77;2.97;;;12.10;98.00;;;;;;5054730;28;20457;-61
2023/05/12 03:56:26;;;;;;;6.40;3.67;;;12.00;98.00;;;;;;5036979;28;20460;-62
2023/05/12 03:58:53;;;;;;;5.50;3.00;;;12.10;98.00;;;;;;5054453;28;20949;-62
2023/05/12 04:01:22;;;;;;;9.70;3.57;;;12.10;98.00;;;;;;5054568;28;20459;-61
2023/05/12 04:03:49;;;;;;;8.27;3.60;;;12.20;98.00;;;;;;5054312;28;20483;-61
2023/05/12 04:06:16;;;;;;;7.47;3.57;;;12.40;98.00;;;;;;5054533;28;20453;-61
2023/05/12 04:08:43;;;;;;;5.80;3.40;;;12.50;98.00;;;;;;5054567;28;20981;-61
2023/05/12 04:11:10;;;;;;;8.67;3.70;;;12.40;98.00;;;;;;5054127;28;20471;-62
2023/05/12 04:13:37;;;;;;;5.40;3.27;;;12.30;98.00;;;;;;5054236;28;20469;-62
2023/05/12 04:16:05;;;;;;;7.23;3.70;;;12.40;98.00;;;;;;5054226;28;20456;-61
2023/05/12 04:18:34;;;;;;;6.10;3.57;;;12.30;98.00;;;;;;5054211;28;20455;-61
2023/05/12 04:21:01;;;;;;;5.80;3.50;;;12.40;98.00;;;;;;5054098;28;20988;-63
2023/05/12 04:23:28;;;;;;;9.00;4.17;;;12.30;98.00;;;;;;5054325;28;20483;-61
2023/05/12 04:25:55;;;;;;;6.27;3.87;;;12.30;98.00;;;;;;5054186;28;21015;-62
2023/05/12 04:28:23;;;;;;;8.17;4.10;;;12.30;98.00;;;;;;5036755;28;20459;-62
2023/05/12 04:30:50;;;;;;;6.73;3.87;;;12.20;98.00;;;;;;5054012;28;20451;-62
2023/05/12 04:33:17;;;;;;;6.27;3.80;;;12.20;98.00;;;;;;5053994;28;20957;-61
2023/05/12 04:35:46;;;;;;;6.00;3.43;;;12.10;98.00;;;;;;5053858;28;20823;-62
2023/05/12 04:38:13;;;;;;;4.93;3.20;;;12.10;98.00;;;;;;5054123;28;20458;-62
2023/05/12 04:40:40;;;;;;;7.00;3.57;;;12.00;98.00;;;;;;5035972;28;20467;-62
2023/05/12 04:43:07;;;;;;;6.63;3.70;;;12.10;98.00;;;;;;5054255;28;20895;-61
2023/05/12 04:45:36;;;;;;;7.60;3.83;;;12.10;98.00;;;;;;5035795;28;20451;-62
2023/05/12 04:48:03;;;;;;;6.97;3.57;;;12.00;98.00;;;;;;5053662;28;20464;-62
2023/05/12 04:50:30;;;;;;;7.97;3.90;;;12.00;98.00;;;;;;5053612;28;20452;-61
2023/05/12 04:52:59;;;;;;;6.10;3.70;;;12.00;98.00;;;;;;5035039;28;20762;-62
2023/05/12 04:55:26;;;;;;;9.53;4.20;;;12.00;98.00;;;;;;5053067;28;20455;-62
2023/05/12 04:57:53;;;;;;;12.07;4.23;;;12.00;98.00;;;;;;5035641;28;20457;-62
2023/05/12 05:00:21;;;;;;;6.80;3.47;;;11.90;98.00;;;;;;5053387;28;20456;-63
2023/05/12 05:02:48;;;;;;;7.47;3.73;;;12.00;98.00;;;;;;5035399;28;20485;-62
2023/05/12 05:05:15;;;;;;;8.80;4.00;;;12.10;98.00;;;;;;5053341;28;20451;-62
2023/05/12 05:07:42;;;;;;;5.80;3.77;;;12.20;98.00;;;;;;5035485;28;20460;-62
2023/05/12 05:10:11;;;;;;;7.23;4.20;;;12.00;98.00;;;;;;5053235;28;20454;-62
2023/05/12 05:12:38;;;;;;;6.27;3.30;;;12.10;98.00;;;;;;5053032;28;20969;-61
2023/05/12 05:15:08;;;;;;;7.43;4.27;;;12.10;98.00;;;;;;5053560;28;20464;-62
2023/05/12 05:17:35;;;;;;;8.80;4.10;;;12.30;98.00;;;;;;5053166;28;20512;-63
2023/05/12 05:20:04;;;;;;;6.90;4.20;;;12.60;98.00;;;;;;5053123;28;20458;-61
2023/05/12 05:22:31;;;;;;;8.20;4.17;;;12.70;98.00;;;;;;5053123;28;20484;-61
2023/05/12 05:24:58;;;;;;;10.93;4.10;;;12.90;98.00;;;;;;5053068;28;20459;-63
2023/05/12 05:27:28;;;;;;;10.90;4.80;;;12.80;98.00;;;;;;5052943;28;20999;-62
2023/05/12 05:29:55;;;;;;;6.23;3.70;;;12.80;98.00;;;;;;5052917;28;20462;-62
2023/05/12 05:32:22;;;;;;;6.33;3.53;;;12.80;98.00;;;;;;5052959;28;20458;-63
2023/05/12 05:34:49;;;;;;;8.80;4.60;;;12.80;98.00;;;;;;5034922;28;20466;-61
2023/05/12 05:37:17;;;;;;;9.23;4.30;;;12.60;98.00;;;;;;5052820;28;20501;-62
2023/05/12 05:39:45;;;;;;;9.70;4.53;;;12.60;98.00;;;;;;5052566;28;20458;-62
2023/05/12 05:42:12;;;;;;;8.30;3.80;;;12.50;98.00;;;;;;5052829;28;20450;-61
2023/05/12 05:44:42;;;;;;;8.00;4.33;;;12.70;98.00;;;;;;5052643;28;20957;-62
2023/05/12 05:47:09;;;;;;;7.93;4.30;;;12.60;98.00;;;;;;5052431;28;20466;-61
2023/05/12 05:49:36;;;;;;;5.87;3.40;;;12.70;98.00;;;;;;5052587;28;20556;-62
2023/05/12 05:52:04;;;;;;;6.53;3.53;;;12.80;98.00;;;;;;5052270;28;20455;-62
2023/05/12 05:54:31;;;;;;;6.30;3.40;;;12.90;98.00;;;;;;5052456;28;20454;-62
2023/05/12 05:57:00;;;;;;;8.30;4.00;;;12.90;98.00;;;;;;5052287;28;20446;-62
2023/05/12 05:59:28;;;;;;;7.67;3.77;;;12.70;98.00;;;;;;5052161;28;20495;-62
2023/05/12 06:01:57;;;;;;;7.77;3.70;;;12.80;98.00;;;;;;5052478;28;20984;-60
2023/05/12 06:04:24;;;;;;;6.30;3.50;;;13.00;98.00;;;;;;5052234;28;20491;-60
2023/05/12 06:06:51;;;;;;;7.20;3.40;;;13.00;98.00;;;;;;5052085;28;20471;-61
2023/05/12 06:09:18;;;;;;;7.13;3.33;;;12.80;98.00;;;;;;5051926;28;20866;-60
2023/05/12 06:11:46;;;;;;;8.00;3.90;;;12.80;98.00;;;;;;5052016;28;20457;-60
2023/05/12 06:14:13;;;;;;;4.53;3.13;;;12.70;98.00;;;;;;5051504;28;20450;-60
2023/05/12 06:16:40;;;;;;;7.10;3.97;;;12.70;98.00;;;;;;5052200;28;20466;-60
2023/05/12 06:19:10;;;;;;;9.30;4.20;;;12.90;98.00;;;;;;5034488;28;21042;-60
2023/05/12 06:21:37;;;;;;;5.27;3.40;;;12.90;98.00;;;;;;5034054;28;20455;-60
2023/05/12 06:24:05;;;;;;;6.87;4.17;;;12.80;98.00;;;;;;5051869;28;21023;-61
2023/05/12 06:26:32;;;;;;;10.80;4.67;;;12.80;98.00;;;;;;5017961;28;20882;-61
2023/05/12 06:28:59;;;;;;;7.17;3.73;;;12.90;98.00;;;;;;5051741;28;20460;-61
2023/05/12 06:31:26;;;;;;;6.77;3.37;;;13.00;98.00;;;;;;5051727;28;20504;-60
2023/05/12 06:33:53;;;;;;;6.37;3.27;;;13.20;98.00;;;;;;5051583;28;20509;-60
2023/05/12 06:36:22;;;;;;;6.77;3.40;;;13.30;98.00;;;;;;5051554;28;20454;-61
2023/05/12 06:38:51;;;;;;;6.07;3.00;;;13.40;98.00;;;;;;5051529;28;20459;-60
2023/05/12 06:41:18;;;;;;;7.40;3.80;;;13.50;98.00;;;;;;5051398;28;20456;-60
2023/05/12 06:43:45;;;;;;;4.83;2.90;;;13.50;98.00;;;;;;5051490;28;20491;-61
2023/05/12 06:46:13;;;;;;;6.87;3.83;;;13.40;98.00;;;;;;5051328;28;20460;-60
2023/05/12 06:48:40;;;;;;;6.07;3.00;;;13.50;98.00;;;;;;5034099;28;20547;-60
2023/05/12 06:51:08;;;;;;;7.20;3.30;;;13.70;98.00;;;;;;5051195;28;20521;-62
2023/05/12 06:53:37;;;;;;;6.30;3.27;;;14.00;98.00;;;;;;5051435;28;20819;-61
2023/05/12 06:56:04;;;;;;;8.83;3.57;;;14.10;98.00;;;;;;5051174;28;20500;-60
2023/05/12 06:58:31;;;;;;;5.07;3.07;;;14.00;98.00;;;;;;5033600;28;20467;-60
2023/05/12 07:00:59;;;;;;;7.40;3.70;;;14.10;98.00;;;;;;5051206;28;20451;-60
2023/05/12 07:03:26;;;;;;;5.90;3.20;;;14.30;98.00;;;;;;5051249;28;20610;-60
2023/05/12 07:05:53;;;;;;;4.90;2.70;;;14.50;98.00;;;;;;5030904;28;20464;-60
2023/05/12 07:08:20;;;;;;;5.73;3.60;;;14.70;98.00;;;;;;5051335;28;20977;-60
2023/05/12 07:10:49;;;;;;;6.40;3.00;;;14.80;98.00;;;;;;5051216;28;20463;-61
2023/05/12 07:13:16;;;;;;;5.83;2.97;;;14.90;98.00;;;;;;5051491;28;20871;-61
2023/05/12 07:15:45;;;;;;;4.40;2.83;;;14.90;98.00;;;;;;5050485;28;20484;-61
2023/05/12 07:18:12;;;;;;;7.87;3.37;;;15.00;98.00;;;;;;5033470;28;20510;-62
2023/05/12 07:20:39;;;;;;;4.03;2.47;;;14.90;98.00;;;;;;5033390;28;20459;-60
2023/05/12 07:23:06;;;;;;;4.60;2.70;;;14.90;98.00;;;;;;5051114;28;20491;-61
2023/05/12 07:25:34;;;;;;;4.43;2.30;;;14.90;98.00;;;;;;5051040;28;20458;-60
2023/05/12 07:28:02;;;;;;;6.47;3.70;;;14.90;98.00;;;;;;5045287;28;20468;-60
2023/05/12 07:30:30;;;;;;;4.30;2.60;;;14.90;98.00;;;;;;5030747;28;20452;-60
2023/05/12 07:32:59;;;;;;;4.30;2.60;;;15.00;98.00;;;;;;5030791;28;20468;-61
2023/05/12 07:35:28;;;;;;;4.03;2.50;;;15.00;98.00;;;;;;5030778;28;20460;-61
2023/05/12 07:37:56;;;;;;;4.07;2.60;;;15.00;98.00;;;;;;5030745;28;20464;-60
2023/05/12 07:40:23;;;;;;;4.30;2.20;;;15.00;98.00;;;;;;5030730;28;20463;-61
2023/05/12 07:42:50;;;;;;;5.10;2.83;;;14.70;98.00;;;;;;5030978;28;20482;-61
2023/05/12 07:45:21;;;;;;;2.90;2.17;;;14.60;98.00;;;;;;5013345;28;20464;-60
2023/05/12 07:47:50;;;;;;;4.70;2.83;;;14.60;98.00;;;;;;5030713;28;20455;-60
2023/05/12 07:50:17;;;;;;;3.90;2.60;;;14.70;98.00;;;;;;5030641;28;20467;-62
2023/05/12 07:52:56;;;;;;;4.03;2.53;;;14.70;98.00;;;;;;5030850;28;20460;-61
2023/05/12 07:55:24;;;;;;;2.80;2.30;;;14.70;98.00;;;;;;5030676;28;20955;-61
2023/05/12 07:57:51;;;;;;;7.73;2.87;;;14.80;98.00;;;;;;5030291;28;20452;-61
2023/05/12 08:00:20;;;;;;;6.33;2.70;;;14.80;98.00;;;;;;5030785;28;20597;-60
2023/05/12 08:02:47;;;;;;;4.63;3.10;;;14.90;98.00;;;;;;5030401;28;20485;-61
2023/05/12 08:05:15;;;;;;;3.57;2.50;;;15.00;98.00;;;;;;5030793;28;20462;-61
2023/05/12 08:07:42;;;;;;;3.93;2.50;;;15.00;98.00;;;;;;5030740;28;20453;-61
2023/05/12 08:10:11;;;;;;;6.83;2.90;;;15.20;98.00;;;;;;5030390;28;20546;-61
2023/05/12 08:12:39;;;;;;;3.83;2.40;;;15.40;98.00;;;;;;5026891;28;20464;-61
2023/05/12 08:15:07;;;;;;;3.77;2.40;;;15.50;98.00;;;;;;5028522;28;20464;-60
2023/05/12 08:17:36;;;;;;;6.97;2.47;;;15.60;98.00;;;;;;5027973;28;20468;-61
2023/05/12 08:20:04;;;;;;;3.77;2.40;;;15.80;98.00;;;;;;5027421;28;20468;-61
2023/05/12 08:22:31;;;;;;;3.40;2.30;;;15.80;98.00;;;;;;5028272;28;20864;-62
2023/05/12 08:24:58;;;;;;;3.67;2.60;;;15.90;98.00;;;;;;5026380;28;20502;-61
2023/05/12 08:27:25;;;;;;;4.23;2.73;;;15.80;98.00;;;;;;5027838;28;20995;-61
2023/05/12 08:29:52;;;;;;;4.30;2.60;;;16.00;98.00;;;;;;5031208;28;20478;-62
2023/05/12 08:32:19;;;;;;;3.60;2.47;;;16.00;98.00;;;;;;5031802;28;20959;-60
2023/05/12 08:34:48;;;;;;;5.87;2.87;;;16.00;98.00;;;;;;5031195;28;20465;-61
2023/05/12 08:37:17;;;;;;;3.83;2.50;;;16.10;98.00;;;;;;5031153;28;20508;-61
2023/05/12 08:39:44;;;;;;;4.13;2.03;;;16.30;98.00;;;;;;5031633;28;20459;-60
2023/05/12 08:42:25;;;;;;;2.90;2.10;;;16.40;98.00;;;;;;5033339;28;20453;-61
2023/05/12 08:44:53;;;;;;;3.23;2.20;;;16.30;98.00;;;;;;5033937;28;20493;-61
2023/05/12 08:47:24;;;;;;;3.23;2.23;;;16.20;98.00;;;;;;5033927;28;20461;-61
2023/05/12 08:50:01;;;;;;;3.60;2.10;;;16.20;98.00;;;;;;5034342;28;20459;-60
2023/05/12 08:52:30;;;;;;;3.17;2.00;;;16.30;98.00;;;;;;5034330;28;20465;-60
2023/05/12 08:54:59;;;;;;;2.67;2.10;;;16.50;98.00;;;;;;5034363;28;20458;-60
2023/05/12 08:57:27;;;;;;;4.37;2.30;;;16.60;98.00;;;;;;5034387;28;20461;-60
2023/05/12 08:59:58;;;;;;;3.13;2.10;;;16.60;98.00;;;;;;5034147;28;20556;-61
2023/05/12 09:02:28;;;;;;;4.30;2.30;;;16.70;98.00;;;;;;5034419;28;20469;-60
2023/05/12 09:04:57;;;;;;;3.07;2.20;;;16.70;98.00;;;;;;5034240;28;20493;-61
2023/05/12 09:07:25;;;;;;;6.10;2.40;;;16.90;98.00;;;;;;5033343;28;20517;-61
2023/05/12 09:09:56;;;;;;;2.87;2.27;;;17.00;98.00;;;;;;5016424;28;20939;-61
2023/05/12 09:12:30;;;;;;;3.13;1.90;;;17.00;98.00;;;;;;5033959;28;20462;-61
2023/05/12 09:15:03;;;;;;;3.20;1.93;;;16.90;98.00;;;;;;5033701;28;20462;-61
2023/05/12 09:17:31;;;;;;;2.30;2.03;;;16.90;98.00;;;;;;5033581;28;20466;-60
2023/05/12 09:19:59;;;;;;;2.67;1.80;;;16.90;98.00;;;;;;5033521;28;20466;-60
2023/05/12 09:22:30;;;;;;;3.87;2.20;;;16.70;98.00;;;;;;5033480;28;20463;-61
2023/05/12 09:24:57;;;;;;;2.33;1.67;;;16.40;98.00;;;;;;5033600;28;20821;-60
2023/05/12 09:27:26;;;;;;;3.83;2.13;;;16.40;98.00;;;;;;5016033;28;20459;-61
2023/05/12 09:29:53;;;;;;;2.60;1.80;;;16.60;98.00;;;;;;5033453;28;20546;-61
2023/05/12 09:32:30;;;;;;;3.00;2.00;;;16.60;98.00;;;;;;5015419;28;20516;-61
2023/05/12 09:35:01;;;;;;;3.20;1.80;;;16.60;98.00;;;;;;5033426;28;20541;-61
2023/05/12 09:37:31;;;;;;;2.70;1.90;;;16.80;98.00;;;;;;5032838;28;20451;-61
2023/05/12 09:40:01;;;;;;;3.50;1.87;;;16.70;98.00;;;;;;5032812;28;20545;-60
2023/05/12 09:42:30;;;;;;;2.27;1.90;;;16.90;98.00;;;;;;5032925;28;20457;-62
2023/05/12 09:45:00;;;;;;;2.87;2.03;;;17.00;98.00;;;;;;5032607;28;20522;-62
2023/05/12 09:47:35;;;;;;;2.57;1.97;;;17.00;98.00;;;;;;5033160;28;20482;-61
2023/05/12 09:50:05;;;;;;;3.20;2.10;;;16.90;98.00;;;;;;5033178;28;20571;-60
2023/05/12 09:52:37;;;;;;;2.57;2.07;;;16.80;98.00;;;;;;5033200;28;20466;-60
2023/05/12 09:55:07;;;;;;;2.33;1.70;;;16.80;98.00;;;;;;5015835;28;20485;-60
2023/05/12 09:57:39;;;;;;;2.83;2.10;;;16.70;98.00;;;;;;5033287;28;20516;-60
2023/05/12 10:00:10;;;;;;;2.97;2.10;;;16.50;98.00;;;;;;5033193;28;20537;-61
2023/05/12 10:02:41;;;;;;;1.77;1.50;;;16.30;98.00;;;;;;5033189;28;20458;-60
2023/05/12 10:05:15;;;;;;;2.80;1.87;;;16.30;98.00;;;;;;5032995;28;20536;-63
2023/05/12 10:07:45;;;;;;;1.77;1.53;;;16.10;98.00;;;;;;5032645;28;20454;-61
2023/05/12 10:10:17;;;;;;;2.37;1.80;;;15.90;98.00;;;;;;5015581;28;20544;-61
2023/05/12 10:12:45;;;;;;;2.53;1.93;;;15.90;98.00;;;;;;5032620;28;20461;-61
2023/05/12 10:15:14;;;;;;;2.07;1.77;;;15.80;98.00;;;;;;5032655;28;20462;-61
2023/05/12 10:17:42;;;;;;;3.30;2.00;;;15.80;98.00;;;;;;5032540;28;20469;-60
2023/05/12 10:20:12;;;;;;;2.70;1.70;;;15.80;98.00;;;;;;5032372;28;20489;-61
2023/05/12 10:22:40;;;;;;;2.80;1.97;;;15.90;98.00;;;;;;5032370;28;20454;-62
2023/05/12 10:25:09;;;;;;;2.20;1.90;;;15.80;98.00;;;;;;5032304;28;20484;-60
2023/05/12 10:27:37;;;;;;;5.63;2.20;;;15.70;98.00;;;;;;5032185;28;20864;-60
2023/05/12 10:30:05;;;;;;;2.20;1.70;;;15.60;98.00;;;;;;5031925;28;20477;-60
2023/05/12 10:32:33;;;;;;;4.07;2.43;;;15.60;98.00;;;;;;5012277;28;20456;-62
2023/05/12 10:35:11;;;;;;;2.13;1.80;;;15.50;98.00;;;;;;5012476;28;20518;-61
2023/05/12 10:37:39;;;;;;;3.00;1.93;;;15.50;98.00;;;;;;5011691;28;20477;-61
2023/05/12 10:40:09;;;;;;;2.70;2.00;;;15.50;98.00;;;;;;5012610;28;20466;-62
2023/05/12 10:42:41;;;;;;;5.20;2.20;;;15.60;98.00;;;;;;5012478;28;20563;-61
2023/05/12 10:45:19;;;;;;;2.67;1.83;;;15.60;98.00;;;;;;5012115;28;20992;-60
2023/05/12 10:47:47;;;;;;;9.03;2.10;;;15.60;98.00;;;;;;5012130;28;21011;-60
2023/05/12 10:50:26;;;;;;;6.00;1.73;;;15.60;98.00;;;;;;5011986;28;20471;-60
2023/05/12 10:52:54;;;;;;;2.80;2.00;;;15.80;98.00;;;;;;4994757;28;20462;-61
2023/05/12 10:55:31;;;;;;;4.00;2.10;;;15.80;98.00;;;;;;5012401;28;21156;-60
2023/05/12 10:58:05;;;;;;;2.50;1.70;;;15.90;98.00;;;;;;5011669;28;20483;-61
2023/05/12 11:00:44;;;;;;;2.17;1.97;;;15.90;98.00;;;;;;5012174;28;20505;-60
2023/05/12 11:03:13;;;;;;;1.77;1.53;;;16.00;98.00;;;;;;5012159;28;20508;-61
2023/05/12 11:05:42;;;;;;;2.30;1.47;;;16.10;98.00;;;;;;5011963;28;20491;-61
2023/05/12 11:08:09;;;;;;;1.90;1.73;;;16.00;98.00;;;;;;5011822;28;20455;-60
2023/05/12 11:10:40;;;;;;;2.43;1.63;;;16.00;98.00;;;;;;5012302;28;20484;-61
2023/05/12 11:13:07;;;;;;;2.13;1.73;;;16.00;98.00;;;;;;5012014;28;20466;-60
2023/05/12 11:15:34;;;;;;;2.40;1.70;;;15.90;98.00;;;;;;4994478;28;20470;-61
2023/05/12 11:18:03;;;;;;;2.47;1.60;;;15.70;98.00;;;;;;5011754;28;20504;-62
2023/05/12 11:20:30;;;;;;;2.93;1.83;;;15.60;98.00;;;;;;5011985;28;20596;-61
2023/05/12 11:22:59;;;;;;;2.80;1.83;;;15.60;98.00;;;;;;5011754;28;20466;-60
2023/05/12 11:25:27;;;;;;;1.93;1.77;;;15.60;98.00;;;;;;4994315;28;20482;-61
2023/05/12 11:27:54;;;;;;;1.93;1.73;;;15.70;98.00;;;;;;5011999;28;20489;-61
2023/05/12 11:30:22;;;;;;;2.20;1.77;;;15.80;98.00;;;;;;5011936;28;20454;-60
2023/05/12 11:33:00;;;;;;;3.40;1.87;;;15.80;98.00;;;;;;5011878;28;20837;-61
2023/05/12 11:35:31;;;;;;;2.80;1.73;;;15.90;98.00;;;;;;5011861;28;21005;-61
2023/05/12 11:38:01;;;;;;;3.13;2.10;;;16.00;98.00;;;;;;5011734;28;20463;-61
2023/05/12 11:40:29;;;;;;;3.50;2.03;;;16.10;98.00;;;;;;5011899;28;20452;-60
2023/05/12 11:42:58;;;;;;;3.10;2.20;;;16.30;98.00;;;;;;4978360;28;20479;-61
2023/05/12 11:45:27;;;;;;;3.90;2.20;;;16.20;98.00;;;;;;5011737;28;20490;-62
2023/05/12 11:48:05;;;;;;;3.10;2.10;;;16.40;98.00;;;;;;5011683;28;20459;-61
2023/05/12 11:50:33;;;;;;;3.50;2.33;;;16.50;98.00;;;;;;5012062;28;20455;-60
2023/05/12 11:53:01;;;;;;;4.23;2.40;;;16.60;98.00;;;;;;5011697;28;20466;-61
2023/05/12 11:55:29;;;;;;;2.53;1.90;;;16.90;98.00;;;;;;5011882;28;20463;-61
2023/05/12 11:57:58;;;;;;;3.10;2.23;;;17.30;98.00;;;;;;5011339;28;20456;-60
2023/05/12 12:00:33;;;;;;;3.80;2.50;;;17.40;98.00;;;;;;5011461;28;20950;-60
2023/05/12 12:03:12;;;;;;;3.57;2.67;;;17.60;98.00;;;;;;5013938;28;20821;-61
2023/05/12 12:05:40;;;;;;;3.77;2.33;;;17.70;98.00;;;;;;4998058;28;20486;-60
2023/05/12 12:08:11;;;;;;;3.60;2.37;;;17.70;98.00;;;;;;5015249;28;20459;-61
2023/05/12 12:10:38;;;;;;;4.10;2.53;;;17.70;98.00;;;;;;4998125;28;20455;-62
2023/05/12 12:13:06;;;;;;;4.50;2.57;;;17.70;98.00;;;;;;5015243;28;20455;-61
2023/05/12 12:15:33;;;;;;;4.33;2.70;;;17.60;98.00;;;;;;5015278;28;20452;-61
2023/05/12 12:18:00;;;;;;;4.40;2.53;;;17.50;98.00;;;;;;5015285;28;20459;-60
2023/05/12 12:20:27;;;;;;;3.60;2.40;;;17.20;98.00;;;;;;5014969;28;20460;-60
2023/05/12 12:22:55;;;;;;;4.23;2.80;;;17.00;98.00;;;;;;4997864;28;20463;-60
2023/05/12 12:25:23;;;;;;;4.60;3.10;;;16.90;98.00;;;;;;5015199;28;20482;-61
2023/05/12 12:27:51;;;;;;;4.53;2.63;;;16.70;98.00;;;;;;5015084;28;20537;-61
2023/05/12 12:30:21;;;;;;;3.47;2.43;;;16.50;98.00;;;;;;5015337;28;20451;-60
2023/05/12 12:32:48;;;;;;;4.63;2.70;;;16.40;98.00;;;;;;5014930;28;20517;-61
2023/05/12 12:35:17;;;;;;;4.77;3.10;;;16.30;98.00;;;;;;5014988;28;20463;-62
2023/05/12 12:37:50;;;;;;;6.63;3.40;;;16.20;98.00;;;;;;5014807;28;20451;-61
2023/05/12 12:40:20;;;;;;;6.07;2.87;;;16.10;98.00;;;;;;5015067;28;20554;-61
2023/05/12 12:42:49;;;;;;;6.17;3.20;;;16.00;98.00;;;;;;5014808;28;20455;-62
2023/05/12 12:45:16;;;;;;;5.50;3.07;;;16.00;98.00;;;;;;5015021;28;20487;-61
2023/05/12 12:47:43;;;;;;;6.17;3.10;;;16.00;98.00;;;;;;5014942;28;20467;-61
2023/05/12 12:50:11;;;;;;;6.07;3.00;;;16.00;98.00;;;;;;5014947;28;20525;-61
2023/05/12 12:52:38;;;;;;;6.33;2.90;;;16.00;98.00;;;;;;5014527;28;20452;-63